Time;durP1;ratioP1;P1;durP2;ratioP2;P2;SDS_P1;SDS_P2;PMS_P1;PMS_P2;Temp;Humidity;BMP_temperature;BMP_pressure;BME280_temperature;BME280_humidity;BME280_pressure;Samples;Min_cycle;Max_cycle;Signal;HPM_P1;HPM_P2
2021/12/19 00:00:09;;;;;;;394.50;126.95;;;;;;;1.72;88.29;100360.09;342538;28;2736;-71
2021/12/19 00:00:20;;;;;;;392.75;126.22;;;;;;;1.74;88.23;100357.50;342553;28;897;-71
2021/12/19 00:00:30;;;;;;;392.47;125.90;;;;;;;1.74;88.81;100354.94;341191;28;1013;-71
2021/12/19 00:00:41;;;;;;;392.83;126.78;;;;;;;1.74;88.00;100357.50;342274;28;1415;-71
2021/12/19 00:00:53;;;;;;;395.35;129.95;;;;;;;1.73;88.48;100358.38;339778;29;1232;-71
2021/12/19 00:01:14;;;;;;;394.92;128.38;;;;;;;1.74;88.38;100352.34;343321;28;2137;-71
2021/12/19 00:02:03;;;;;;;385.95;120.10;;;;;;;1.74;88.06;100354.94;342589;28;2025;-71
2021/12/19 00:04:43;;;;;;;388.52;116.78;;;;;;;1.75;88.03;100359.22;338434;29;1063;-71
2021/12/19 00:04:53;;;;;;;394.38;126.03;;;;;;;1.74;88.31;100353.22;340988;29;1386;-71
2021/12/19 00:08:28;;;;;;;383.70;118.75;;;;;;;1.73;87.93;100356.69;338323;29;2018;-71
2021/12/19 00:08:50;;;;;;;389.02;121.07;;;;;;;1.76;88.85;100345.47;341142;29;1081;-72
2021/12/19 00:09:01;;;;;;;390.20;123.88;;;;;;;1.74;88.40;100347.19;342297;28;1842;-72
2021/12/19 00:09:12;;;;;;;390.98;122.76;;;;;;;1.74;88.47;100347.19;342292;28;2145;-72
2021/12/19 00:09:22;;;;;;;390.70;120.07;;;;;;;1.75;88.00;100348.91;342449;28;988;-72
2021/12/19 00:09:33;;;;;;;390.77;119.30;;;;;;;1.74;88.86;100342.03;343477;28;2070;-72
2021/12/19 00:09:43;;;;;;;391.87;123.50;;;;;;;1.74;88.46;100350.63;342439;28;1079;-72
2021/12/19 00:09:54;;;;;;;393.27;128.32;;;;;;;1.74;89.12;100348.03;339849;29;895;-72
2021/12/19 00:10:05;;;;;;;392.67;129.90;;;;;;;1.74;88.59;100348.03;340058;28;2182;-72
2021/12/19 00:10:15;;;;;;;390.92;128.50;;;;;;;1.75;88.09;100339.47;342263;28;1498;-72
2021/12/19 00:10:26;;;;;;;390.53;124.30;;;;;;;1.74;88.20;100342.88;341294;29;870;-72
2021/12/19 00:10:36;;;;;;;390.85;123.45;;;;;;;1.73;88.44;100340.34;339948;29;1398;-72
2021/12/19 00:10:47;;;;;;;390.03;120.60;;;;;;;1.75;88.49;100348.91;342299;28;1291;-72
2021/12/19 00:10:57;;;;;;;388.55;119.15;;;;;;;1.74;88.15;100347.19;342076;28;1848;-72
2021/12/19 00:11:08;;;;;;;389.10;119.43;;;;;;;1.73;88.42;100341.19;342563;28;984;-72
2021/12/19 00:11:20;;;;;;;391.00;122.57;;;;;;;1.73;88.27;100340.34;340706;28;2083;-72
2021/12/19 00:11:31;;;;;;;388.38;120.10;;;;;;;1.74;88.41;100347.19;337173;29;993;-73
2021/12/19 00:11:41;;;;;;;383.58;116.63;;;;;;;1.75;87.85;100338.59;339786;29;2193;-72
2021/12/19 00:11:52;;;;;;;384.43;115.37;;;;;;;1.74;88.50;100342.03;339906;29;882;-72
2021/12/19 00:12:02;;;;;;;386.63;117.07;;;;;;;1.74;88.05;100339.44;340566;29;1859;-72
2021/12/19 00:12:13;;;;;;;390.37;121.03;;;;;;;1.73;87.89;100343.78;341112;29;1993;-72
2021/12/19 00:12:23;;;;;;;391.42;123.78;;;;;;;1.74;87.69;100342.03;342598;28;940;-72
2021/12/19 00:12:34;;;;;;;390.77;125.40;;;;;;;1.74;88.26;100342.03;342000;28;1772;-72
2021/12/19 00:12:44;;;;;;;388.90;124.13;;;;;;;1.73;88.12;100345.50;337509;29;1986;-72
2021/12/19 00:12:56;;;;;;;387.63;122.73;;;;;;;1.74;87.97;100347.19;338520;29;1193;-72
2021/12/19 00:13:07;;;;;;;387.83;121.80;;;;;;;1.73;87.94;100337.75;339837;29;1671;-72
2021/12/19 00:13:17;;;;;;;390.23;124.30;;;;;;;1.74;88.21;100345.47;343737;28;2089;-72
2021/12/19 00:13:28;;;;;;;390.80;125.72;;;;;;;1.74;88.10;100342.03;343637;28;2012;-72
2021/12/19 00:13:40;;;;;;;389.23;124.40;;;;;;;1.73;88.24;100336.03;342420;28;1396;-72
2021/12/19 00:13:51;;;;;;;387.73;119.78;;;;;;;1.75;87.59;100341.16;343699;28;2173;-72
2021/12/19 00:14:01;;;;;;;390.13;119.50;;;;;;;1.74;88.38;100342.03;341745;28;2281;-72
2021/12/19 00:14:12;;;;;;;391.45;118.07;;;;;;;1.74;88.06;100342.03;341165;28;1879;-72
2021/12/19 00:14:23;;;;;;;389.80;118.10;;;;;;;1.73;87.80;100337.75;339923;29;1368;-72
2021/12/19 00:14:33;;;;;;;387.60;119.18;;;;;;;1.74;87.63;100339.44;342306;28;1652;-72
2021/12/19 00:14:44;;;;;;;384.38;117.05;;;;;;;1.74;87.77;100339.44;343559;28;1493;-72
2021/12/19 00:14:54;;;;;;;381.77;112.93;;;;;;;1.75;87.67;100346.31;341322;29;877;-72
2021/12/19 00:15:05;;;;;;;383.30;113.18;;;;;;;1.74;87.52;100342.03;339728;29;1837;-72
2021/12/19 00:15:16;;;;;;;385.55;118.78;;;;;;;1.74;88.22;100342.03;340360;29;1593;-72
2021/12/19 00:15:26;;;;;;;389.87;124.13;;;;;;;1.73;88.12;100338.63;341147;29;2023;-72
2021/12/19 00:15:36;;;;;;;390.92;122.80;;;;;;;1.74;87.39;100344.59;338446;29;944;-72
2021/12/19 00:15:47;;;;;;;396.93;122.30;;;;;;;1.73;87.45;100335.16;339767;29;1902;-72
2021/12/19 00:15:57;;;;;;;397.17;122.25;;;;;;;1.73;87.64;100335.16;339562;29;2266;-72
2021/12/19 00:16:08;;;;;;;396.20;120.93;;;;;;;1.72;87.75;100333.44;339879;29;1284;-72
2021/12/19 00:16:19;;;;;;;391.05;119.65;;;;;;;1.73;88.01;100336.03;339694;29;1858;-72
2021/12/19 00:16:29;;;;;;;388.30;118.25;;;;;;;1.73;87.88;100340.34;340199;29;2143;-72
2021/12/19 00:16:40;;;;;;;390.00;119.30;;;;;;;1.72;88.20;100334.31;341107;28;1168;-72
2021/12/19 00:16:51;;;;;;;394.00;121.57;;;;;;;1.73;88.25;100345.50;342294;28;2094;-72
2021/12/19 00:17:01;;;;;;;394.10;121.22;;;;;;;1.72;87.98;100333.44;343766;28;2372;-72
2021/12/19 00:17:12;;;;;;;394.75;121.93;;;;;;;1.71;87.41;100342.03;342505;28;2052;-72
2021/12/19 00:17:22;;;;;;;393.40;119.93;;;;;;;1.73;88.33;100340.34;343878;28;1112;-71
2021/12/19 00:17:32;;;;;;;392.77;120.85;;;;;;;1.71;87.90;100336.88;342309;28;1723;-71
2021/12/19 00:17:43;;;;;;;390.27;119.63;;;;;;;1.70;87.33;100335.16;339733;29;1180;-72
2021/12/19 00:17:53;;;;;;;390.37;119.20;;;;;;;1.71;87.83;100335.16;341168;29;1402;-72
2021/12/19 00:18:04;;;;;;;389.85;120.13;;;;;;;1.72;88.42;100338.59;341029;29;1807;-71
2021/12/19 00:18:14;;;;;;;390.13;119.93;;;;;;;1.71;88.08;100335.16;339974;28;2095;-71
2021/12/19 00:18:24;;;;;;;388.47;120.47;;;;;;;1.72;87.57;100336.88;339863;28;1304;-71
2021/12/19 00:18:35;;;;;;;388.70;121.67;;;;;;;1.71;87.53;100339.47;339709;29;1389;-71
2021/12/19 00:18:47;;;;;;;389.60;124.93;;;;;;;1.70;87.73;100335.16;342309;28;2037;-71
2021/12/19 00:18:57;;;;;;;392.98;127.40;;;;;;;1.69;87.57;100343.75;344890;28;1867;-71
2021/12/19 00:19:08;;;;;;;397.20;126.97;;;;;;;1.71;87.94;100336.88;343804;28;1851;-71
2021/12/19 00:19:18;;;;;;;397.67;125.30;;;;;;;1.70;87.51;100337.72;342358;28;2039;-71
2021/12/19 00:19:28;;;;;;;393.77;123.45;;;;;;;1.71;88.14;100337.75;343768;28;1815;-71
2021/12/19 00:19:39;;;;;;;387.60;119.30;;;;;;;1.70;87.74;100332.56;343845;28;867;-71
2021/12/19 00:19:49;;;;;;;390.42;120.68;;;;;;;1.71;88.45;100336.88;343229;28;1819;-71
2021/12/19 00:20:00;;;;;;;390.67;120.57;;;;;;;1.72;87.54;100338.59;342353;28;1530;-71
2021/12/19 00:20:10;;;;;;;393.43;121.93;;;;;;;1.71;87.95;100331.72;342535;28;952;-71
2021/12/19 00:20:21;;;;;;;387.90;117.72;;;;;;;1.72;87.69;100338.59;343788;28;1813;-71
2021/12/19 00:20:31;;;;;;;385.60;114.18;;;;;;;1.71;87.27;100337.75;342837;28;1737;-71
2021/12/19 00:20:42;;;;;;;384.53;113.73;;;;;;;1.72;87.41;100334.31;343740;28;1261;-71
2021/12/19 00:20:52;;;;;;;387.08;116.18;;;;;;;1.73;87.93;100335.16;341376;28;1915;-71
2021/12/19 00:21:03;;;;;;;388.93;119.83;;;;;;;1.73;87.84;100337.75;343071;28;2138;-71
2021/12/19 00:21:15;;;;;;;390.90;121.10;;;;;;;1.72;87.27;100339.47;343802;28;2154;-71
2021/12/19 00:21:26;;;;;;;388.77;118.45;;;;;;;1.72;87.84;100334.31;345022;28;1421;-71
2021/12/19 00:21:36;;;;;;;389.58;120.10;;;;;;;1.72;86.88;100338.59;342407;28;1927;-71
2021/12/19 00:21:46;;;;;;;389.50;121.47;;;;;;;1.72;87.36;100333.44;340984;28;1799;-71
2021/12/19 00:21:57;;;;;;;390.97;124.20;;;;;;;1.72;87.52;100336.03;341210;29;977;-71
2021/12/19 00:22:08;;;;;;;390.80;120.95;;;;;;;1.73;88.08;100341.19;341009;29;1874;-71
2021/12/19 00:22:18;;;;;;;390.03;121.77;;;;;;;1.73;87.74;100340.34;339749;28;2053;-71
2021/12/19 00:22:28;;;;;;;390.08;119.35;;;;;;;1.73;87.44;100335.16;339739;29;1571;-71
2021/12/19 00:22:39;;;;;;;389.07;116.90;;;;;;;1.73;87.67;100335.16;339865;29;872;-71
2021/12/19 00:22:49;;;;;;;390.38;115.45;;;;;;;1.72;87.23;100339.47;340273;29;2178;-71
2021/12/19 00:22:59;;;;;;;390.03;117.47;;;;;;;1.71;87.62;100334.28;342471;28;2078;-71
2021/12/19 00:23:10;;;;;;;387.92;115.82;;;;;;;1.72;88.01;100341.19;342419;28;1352;-71
2021/12/19 00:23:21;;;;;;;388.35;117.38;;;;;;;1.72;87.88;100339.47;342393;28;2172;-71
2021/12/19 00:23:31;;;;;;;388.63;118.23;;;;;;;1.72;87.61;100331.72;340977;28;1772;-71
2021/12/19 00:23:42;;;;;;;387.77;119.22;;;;;;;1.73;87.68;100330.00;342557;28;1328;-71
2021/12/19 00:23:53;;;;;;;387.23;120.43;;;;;;;1.73;87.01;100335.16;339805;29;1621;-71
2021/12/19 00:24:04;;;;;;;386.65;116.38;;;;;;;1.73;86.99;100332.59;342409;28;1716;-71
2021/12/19 00:24:14;;;;;;;387.75;118.95;;;;;;;1.73;87.22;100340.34;342318;28;1943;-71
2021/12/19 00:24:25;;;;;;;386.27;118.57;;;;;;;1.73;86.77;100337.75;343787;28;1362;-71
2021/12/19 00:24:35;;;;;;;385.67;119.10;;;;;;;1.73;87.30;100335.16;342410;28;1829;-71
2021/12/19 00:24:46;;;;;;;387.60;117.83;;;;;;;1.72;86.81;100341.19;340927;28;2167;-71
2021/12/19 00:24:56;;;;;;;388.20;116.80;;;;;;;1.73;86.67;100330.00;343731;28;1288;-71
2021/12/19 00:25:07;;;;;;;389.90;119.23;;;;;;;1.72;86.28;100331.72;342666;28;2109;-71
2021/12/19 00:25:17;;;;;;;388.80;120.90;;;;;;;1.72;87.13;100334.31;340233;29;2210;-71
2021/12/19 00:25:27;;;;;;;388.77;121.90;;;;;;;1.72;86.97;100328.28;338407;28;2036;-71
2021/12/19 00:25:38;;;;;;;389.07;122.23;;;;;;;1.71;87.39;100337.75;340988;29;1743;-71
2021/12/19 00:25:48;;;;;;;389.48;120.38;;;;;;;1.72;86.93;100333.44;341828;28;1731;-71
2021/12/19 00:25:59;;;;;;;386.70;118.33;;;;;;;1.72;87.22;100336.03;338391;29;1135;-71
2021/12/19 00:26:09;;;;;;;385.75;115.72;;;;;;;1.72;86.72;100338.59;342380;28;2327;-71
2021/12/19 00:26:20;;;;;;;383.40;113.60;;;;;;;1.72;87.05;100330.88;342035;28;1981;-71
2021/12/19 00:26:30;;;;;;;384.05;114.00;;;;;;;1.71;87.18;100331.72;342520;28;1252;-71
2021/12/19 00:26:41;;;;;;;383.27;114.67;;;;;;;1.71;87.49;100335.16;342430;28;940;-71
2021/12/19 00:26:52;;;;;;;384.77;116.13;;;;;;;1.72;87.25;100336.03;341775;28;1332;-71
2021/12/19 00:27:02;;;;;;;385.73;113.05;;;;;;;1.71;86.81;100331.72;344628;28;1393;-71
2021/12/19 00:27:13;;;;;;;387.63;116.57;;;;;;;1.70;87.17;100332.56;342468;28;1019;-71
2021/12/19 00:27:23;;;;;;;389.33;121.37;;;;;;;1.70;87.13;100337.72;342014;28;1772;-71
2021/12/19 00:27:33;;;;;;;388.10;123.65;;;;;;;1.69;86.90;100328.25;339809;29;1223;-71
2021/12/19 00:27:44;;;;;;;386.20;121.53;;;;;;;1.69;86.25;100330.84;339651;28;1300;-71
2021/12/19 00:27:54;;;;;;;383.50;116.03;;;;;;;1.69;87.06;100331.72;341032;28;2170;-71
2021/12/19 00:28:05;;;;;;;382.07;111.67;;;;;;;1.70;86.31;100332.56;341053;29;1713;-71
2021/12/19 00:28:15;;;;;;;383.47;115.93;;;;;;;1.70;86.37;100330.00;341138;29;1193;-71
2021/12/19 00:28:25;;;;;;;390.10;120.35;;;;;;;1.67;86.33;100326.53;342289;28;1888;-71
2021/12/19 00:28:36;;;;;;;390.37;123.33;;;;;;;1.67;85.67;100326.53;342452;28;908;-71
2021/12/19 00:28:47;;;;;;;385.90;115.15;;;;;;;1.66;86.37;100323.94;341684;28;1532;-71
2021/12/19 00:29:00;;;;;;;380.42;112.97;;;;;;;1.65;86.41;100323.06;345260;28;826;-71
2021/12/19 00:29:10;;;;;;;380.55;112.80;;;;;;;1.63;85.79;100329.09;343800;28;1615;-71
2021/12/19 00:29:21;;;;;;;380.42;115.32;;;;;;;1.60;85.77;100326.47;341067;28;1958;-71
2021/12/19 00:29:32;;;;;;;383.33;115.93;;;;;;;1.58;86.18;100326.47;341059;28;2043;-71
2021/12/19 00:29:42;;;;;;;383.80;116.60;;;;;;;1.60;85.91;100329.06;342542;28;1310;-71
2021/12/19 00:29:53;;;;;;;383.80;116.53;;;;;;;1.58;85.91;100326.47;339421;29;1671;-71
2021/12/19 00:30:03;;;;;;;383.57;118.00;;;;;;;1.58;85.64;100323.88;339736;29;1903;-71
2021/12/19 00:30:14;;;;;;;382.05;116.47;;;;;;;1.60;85.91;100326.47;339898;29;914;-71
2021/12/19 00:30:24;;;;;;;381.92;116.20;;;;;;;1.61;86.27;100320.47;339581;29;2162;-71
2021/12/19 00:30:34;;;;;;;379.97;112.37;;;;;;;1.61;85.62;100329.06;340373;29;2041;-71
2021/12/19 00:30:45;;;;;;;381.33;113.80;;;;;;;1.62;85.92;100322.19;340890;29;1293;-71
2021/12/19 00:30:55;;;;;;;381.93;114.10;;;;;;;1.63;85.37;100322.22;343445;28;1942;-71
2021/12/19 00:31:06;;;;;;;380.20;113.43;;;;;;;1.64;85.83;100320.50;340128;29;1929;-71
2021/12/19 00:31:16;;;;;;;380.73;111.50;;;;;;;1.64;85.85;100320.50;340045;29;1013;-71
2021/12/19 00:31:27;;;;;;;380.58;110.47;;;;;;;1.64;85.72;100321.34;339804;29;2195;-71
2021/12/19 00:31:37;;;;;;;382.53;114.80;;;;;;;1.65;85.61;100323.06;341752;28;2015;-71
2021/12/19 00:31:48;;;;;;;382.10;117.10;;;;;;;1.66;85.77;100321.38;341089;28;2133;-71
2021/12/19 00:31:58;;;;;;;383.98;118.20;;;;;;;1.66;85.63;100324.81;341077;28;1401;-71
2021/12/19 00:32:09;;;;;;;386.57;120.33;;;;;;;1.66;85.31;100324.81;342120;28;1750;-71
2021/12/19 00:32:19;;;;;;;383.63;116.03;;;;;;;1.67;84.91;100323.94;341034;28;1279;-71
2021/12/19 00:32:29;;;;;;;380.33;112.57;;;;;;;1.66;85.51;100323.94;342470;28;1221;-71
2021/12/19 00:32:40;;;;;;;377.57;111.27;;;;;;;1.66;85.28;100319.66;340978;29;1593;-71
2021/12/19 00:32:50;;;;;;;377.93;114.57;;;;;;;1.69;85.02;100323.09;343704;28;1600;-71
2021/12/19 00:33:01;;;;;;;377.97;113.40;;;;;;;1.69;85.90;100323.09;342571;28;943;-71
2021/12/19 00:33:11;;;;;;;376.13;108.07;;;;;;;1.69;84.98;100323.09;342308;28;1687;-71
2021/12/19 00:33:21;;;;;;;378.23;109.77;;;;;;;1.67;84.28;100318.78;341151;29;1958;-71
2021/12/19 00:33:32;;;;;;;380.00;115.13;;;;;;;1.67;85.23;100321.38;341037;28;1184;-71
2021/12/19 00:33:42;;;;;;;380.97;118.03;;;;;;;1.69;84.81;100318.81;340798;28;1614;-71
2021/12/19 00:33:53;;;;;;;381.95;119.05;;;;;;;1.67;84.98;100321.38;341859;28;849;-71
2021/12/19 00:34:03;;;;;;;382.15;118.43;;;;;;;1.64;84.54;100321.34;342408;28;1781;-71
2021/12/19 00:34:15;;;;;;;380.80;116.37;;;;;;;1.64;84.80;100318.78;339939;29;856;-71
2021/12/19 00:34:25;;;;;;;377.90;114.28;;;;;;;1.66;83.85;100322.22;339773;29;1884;-71
2021/12/19 00:34:36;;;;;;;378.73;110.93;;;;;;;1.66;84.47;100323.94;340990;28;1295;-71
2021/12/19 00:34:50;;;;;;;376.95;107.43;;;;;;;1.65;83.74;100320.50;342451;28;1231;-71
2021/12/19 00:35:01;;;;;;;376.42;109.97;;;;;;;1.66;84.25;100314.50;341119;29;1263;-70
2021/12/19 00:35:11;;;;;;;376.03;110.23;;;;;;;1.67;83.94;100316.22;341064;28;2078;-70
2021/12/19 00:35:22;;;;;;;375.73;108.60;;;;;;;1.66;84.11;100319.66;341316;28;1762;-70
2021/12/19 00:35:32;;;;;;;374.67;105.50;;;;;;;1.70;83.50;100319.66;341206;29;918;-70
2021/12/19 00:35:43;;;;;;;373.02;106.13;;;;;;;1.67;83.40;100316.22;339716;28;1463;-70
2021/12/19 00:35:53;;;;;;;374.60;110.50;;;;;;;1.69;83.91;100316.22;341750;28;1762;-70
2021/12/19 00:36:04;;;;;;;377.50;115.72;;;;;;;1.70;83.67;100319.66;342305;28;1918;-70
2021/12/19 00:36:15;;;;;;;378.92;116.85;;;;;;;1.69;84.05;100318.81;343798;28;1281;-70
2021/12/19 00:36:25;;;;;;;376.70;113.05;;;;;;;1.67;83.91;100317.94;339751;29;2109;-70
2021/12/19 00:36:36;;;;;;;374.97;110.40;;;;;;;1.66;83.36;100319.66;340688;29;2038;-70
2021/12/19 00:36:46;;;;;;;377.73;111.03;;;;;;;1.67;83.47;100321.38;341162;29;885;-70
2021/12/19 00:36:57;;;;;;;376.80;110.23;;;;;;;1.66;83.56;100316.22;342355;28;2301;-70
2021/12/19 00:37:07;;;;;;;371.13;104.05;;;;;;;1.67;83.52;100318.78;342377;28;1826;-70
2021/12/19 00:37:19;;;;;;;366.23;99.83;;;;;;;1.67;83.64;100315.34;343731;28;1082;-70
2021/12/19 00:37:30;;;;;;;363.17;97.20;;;;;;;1.65;83.36;100317.91;341085;29;1471;-70
2021/12/19 00:37:41;;;;;;;365.63;100.10;;;;;;;1.63;82.89;100314.47;341912;28;2098;-70
2021/12/19 00:37:52;;;;;;;364.95;95.95;;;;;;;1.63;82.90;100317.03;339727;28;2109;-71
2021/12/19 00:38:02;;;;;;;363.95;94.63;;;;;;;1.62;83.64;100312.75;340967;28;1389;-71
2021/12/19 00:38:13;;;;;;;364.40;96.50;;;;;;;1.61;83.55;100316.16;340967;29;2195;-71
2021/12/19 00:38:23;;;;;;;364.00;96.63;;;;;;;1.63;83.09;100317.03;341045;29;2106;-71
2021/12/19 00:38:34;;;;;;;366.07;98.80;;;;;;;1.64;83.49;100321.34;342413;28;2107;-71
2021/12/19 00:38:45;;;;;;;365.65;98.82;;;;;;;1.63;83.14;100314.47;340202;29;1963;-71
2021/12/19 00:38:55;;;;;;;363.42;96.65;;;;;;;1.65;82.85;100317.06;341093;29;2146;-71
2021/12/19 00:39:06;;;;;;;360.20;91.03;;;;;;;1.65;83.07;100315.34;340870;29;2084;-71
2021/12/19 00:39:16;;;;;;;359.27;89.13;;;;;;;1.68;83.43;100314.50;338562;28;1268;-71
2021/12/19 00:39:27;;;;;;;360.60;90.93;;;;;;;1.67;82.70;100311.06;338133;29;2016;-71
2021/12/19 00:39:37;;;;;;;362.97;95.43;;;;;;;1.67;83.44;100316.22;342334;28;2211;-71
2021/12/19 00:39:48;;;;;;;363.25;95.63;;;;;;;1.67;82.85;100311.06;341124;28;1268;-71
2021/12/19 00:39:58;;;;;;;365.63;99.93;;;;;;;1.69;83.01;100312.78;339675;28;2095;-71
2021/12/19 00:40:09;;;;;;;364.60;97.15;;;;;;;1.69;83.12;100315.38;343617;28;2111;-71
2021/12/19 00:40:20;;;;;;;366.35;97.05;;;;;;;1.66;83.29;100314.50;342311;28;1972;-71
2021/12/19 00:40:32;;;;;;;365.92;94.47;;;;;;;1.67;83.09;100311.06;341097;28;1366;-71
2021/12/19 00:40:43;;;;;;;366.40;98.47;;;;;;;1.69;82.29;100312.78;340733;29;1874;-71
2021/12/19 00:40:53;;;;;;;366.42;99.03;;;;;;;1.69;82.53;100318.81;339638;29;2243;-71
2021/12/19 00:41:04;;;;;;;366.25;101.20;;;;;;;1.70;82.05;100310.22;343614;28;1478;-71
2021/12/19 00:41:14;;;;;;;366.10;100.20;;;;;;;1.71;82.74;100311.06;342463;28;988;-71
2021/12/19 00:41:25;;;;;;;366.77;99.43;;;;;;;1.72;82.21;100317.97;342430;28;1487;-71
2021/12/19 00:41:35;;;;;;;367.80;98.33;;;;;;;1.69;81.89;100308.47;339759;29;2197;-71
2021/12/19 00:41:52;;;;;;;366.95;97.85;;;;;;;1.71;81.68;100311.06;343697;28;1329;-71
2021/12/19 00:42:07;;;;;;;364.92;98.53;;;;;;;1.71;82.10;100313.66;341093;29;1643;-71
2021/12/19 00:42:31;;;;;;;366.48;100.53;;;;;;;1.73;81.97;100309.38;341148;29;893;-71
2021/12/19 00:42:42;;;;;;;363.95;100.00;;;;;;;1.70;81.71;100309.34;341841;28;1763;-71
2021/12/19 00:43:02;;;;;;;363.98;100.15;;;;;;;1.72;82.32;100312.81;342244;28;1994;-71
2021/12/19 00:43:24;;;;;;;365.65;100.78;;;;;;;1.72;81.88;100312.81;342333;28;1794;-71
2021/12/19 00:43:45;;;;;;;365.35;99.80;;;;;;;1.70;81.78;100309.34;342360;28;1336;-71
2021/12/19 00:44:07;;;;;;;365.08;100.00;;;;;;;1.71;81.78;100305.91;342977;28;1678;-71
2021/12/19 00:44:22;;;;;;;367.70;101.63;;;;;;;1.71;81.85;100305.91;337193;29;1291;-71
2021/12/19 00:44:33;;;;;;;369.23;105.20;;;;;;;1.72;81.43;100305.06;338552;29;909;-71
2021/12/19 00:44:44;;;;;;;366.25;103.15;;;;;;;1.73;81.23;100306.78;342189;28;2094;-71
2021/12/19 00:44:55;;;;;;;365.40;101.28;;;;;;;1.73;80.85;100306.78;343585;28;1682;-71
2021/12/19 00:45:24;;;;;;;364.23;99.87;;;;;;;1.73;80.96;100309.38;343825;28;1772;-71
2021/12/19 00:45:36;;;;;;;371.20;108.25;;;;;;;1.72;80.96;100305.06;339721;29;1010;-71
2021/12/19 00:45:49;;;;;;;371.38;109.60;;;;;;;1.72;80.78;100312.81;339861;29;897;-71
2021/12/19 00:46:07;;;;;;;369.27;108.60;;;;;;;1.70;80.50;100304.19;342151;28;1115;-71
2021/12/19 00:46:19;;;;;;;370.85;113.18;;;;;;;1.65;81.03;100302.44;342481;28;1257;-71
2021/12/19 00:46:29;;;;;;;372.23;115.18;;;;;;;1.66;80.37;100309.31;343636;28;2199;-72
2021/12/19 00:46:51;;;;;;;370.70;112.63;;;;;;;1.66;80.95;100309.31;341670;28;2042;-72
2021/12/19 00:47:07;;;;;;;370.70;110.10;;;;;;;1.66;80.73;100306.75;340856;29;973;-72
2021/12/19 00:47:18;;;;;;;367.52;107.85;;;;;;;1.66;80.16;100303.31;338581;29;1094;-72
2021/12/19 00:47:28;;;;;;;366.25;107.13;;;;;;;1.66;80.24;100304.16;342096;28;1888;-72
2021/12/19 00:47:39;;;;;;;367.75;109.10;;;;;;;1.69;79.97;100307.63;341860;28;2002;-72
2021/12/19 00:47:49;;;;;;;370.40;112.77;;;;;;;1.67;80.80;100305.91;341180;29;971;-72
2021/12/19 00:48:00;;;;;;;370.83;113.13;;;;;;;1.70;80.54;100299.03;343680;28;1520;-72
2021/12/19 00:48:11;;;;;;;369.95;109.50;;;;;;;1.69;80.31;100303.31;340951;28;2129;-72
2021/12/19 00:48:21;;;;;;;369.37;106.90;;;;;;;1.70;79.85;100299.03;343663;28;2106;-72
2021/12/19 00:48:32;;;;;;;371.25;109.40;;;;;;;1.69;80.00;100302.47;342457;28;1065;-71
2021/12/19 00:48:44;;;;;;;370.90;110.68;;;;;;;1.67;80.06;100303.31;340882;29;2052;-71
2021/12/19 00:48:55;;;;;;;369.00;106.25;;;;;;;1.70;80.37;100304.19;341108;28;2049;-71
2021/12/19 00:49:05;;;;;;;367.65;102.47;;;;;;;1.70;80.20;100304.19;339650;29;1791;-71
2021/12/19 00:49:16;;;;;;;368.33;105.93;;;;;;;1.71;80.07;100300.75;343818;28;1314;-72
2021/12/19 00:49:26;;;;;;;370.83;110.85;;;;;;;1.70;79.67;100299.03;342449;28;1569;-72
2021/12/19 00:49:37;;;;;;;373.13;113.10;;;;;;;1.70;80.59;100293.88;341175;28;1320;-72
2021/12/19 00:49:47;;;;;;;372.27;110.27;;;;;;;1.69;79.94;100302.47;342538;28;879;-72
2021/12/19 00:49:58;;;;;;;370.20;106.65;;;;;;;1.70;80.68;100299.03;343254;28;1763;-72
2021/12/19 00:50:08;;;;;;;369.23;102.17;;;;;;;1.69;79.79;100294.72;344616;28;1876;-72
2021/12/19 00:50:18;;;;;;;374.08;110.20;;;;;;;1.71;79.93;100305.91;339787;29;1384;-72
2021/12/19 00:50:29;;;;;;;376.50;114.83;;;;;;;1.72;79.76;100297.31;339575;29;1643;-72
2021/12/19 00:50:39;;;;;;;375.27;116.68;;;;;;;1.73;79.96;100305.06;341052;28;1915;-72
2021/12/19 00:50:50;;;;;;;374.10;115.43;;;;;;;1.73;80.49;100306.78;343881;28;1052;-72
2021/12/19 00:51:00;;;;;;;372.10;111.72;;;;;;;1.73;79.82;100299.06;342195;28;1486;-72
2021/12/19 00:51:14;;;;;;;371.50;109.20;;;;;;;1.73;80.12;100297.34;341035;28;1582;-72
2021/12/19 00:51:25;;;;;;;369.40;107.32;;;;;;;1.73;80.09;100301.63;341105;29;2119;-72
2021/12/19 00:51:35;;;;;;;371.23;112.03;;;;;;;1.72;79.83;100297.31;342428;28;1224;-72
2021/12/19 00:51:46;;;;;;;371.73;110.97;;;;;;;1.72;79.98;100298.19;342507;28;951;-72
2021/12/19 00:51:56;;;;;;;373.90;111.73;;;;;;;1.69;80.03;100300.75;339766;29;1983;-72
2021/12/19 00:52:07;;;;;;;372.70;109.97;;;;;;;1.69;80.88;100303.31;339660;29;1688;-72
2021/12/19 00:52:17;;;;;;;375.67;115.50;;;;;;;1.67;80.22;100300.75;339949;29;894;-72
2021/12/19 00:52:27;;;;;;;374.67;118.20;;;;;;;1.66;80.55;100295.56;338946;29;2014;-72
2021/12/19 00:52:38;;;;;;;374.20;119.13;;;;;;;1.65;80.39;100296.41;341236;28;1894;-72
2021/12/19 00:52:48;;;;;;;372.48;116.88;;;;;;;1.65;79.63;100292.13;339709;29;1332;-72
2021/12/19 00:52:59;;;;;;;373.23;116.90;;;;;;;1.66;80.20;100300.72;342359;28;1880;-72
2021/12/19 00:53:09;;;;;;;374.85;118.80;;;;;;;1.69;80.06;100292.16;340814;28;1330;-72
2021/12/19 00:53:20;;;;;;;374.37;117.33;;;;;;;1.67;80.36;100290.41;341373;29;897;-72
2021/12/19 00:53:30;;;;;;;372.40;112.95;;;;;;;1.69;79.69;100297.31;336993;29;2151;-72
2021/12/19 00:53:40;;;;;;;370.73;109.60;;;;;;;1.71;79.56;100295.59;341139;28;2491;-72
2021/12/19 00:53:52;;;;;;;372.00;113.88;;;;;;;1.70;79.33;100297.31;343728;28;1806;-72
2021/12/19 00:54:04;;;;;;;372.70;116.45;;;;;;;1.69;79.67;100298.16;341239;29;1016;-72
2021/12/19 00:54:14;;;;;;;373.40;116.93;;;;;;;1.70;79.66;100293.88;338144;29;2188;-72
2021/12/19 00:54:25;;;;;;;376.47;117.47;;;;;;;1.67;79.90;100298.16;341333;28;2059;-72
2021/12/19 00:54:35;;;;;;;376.25;118.75;;;;;;;1.69;79.88;100294.72;342606;28;939;-72
2021/12/19 00:54:46;;;;;;;375.50;118.40;;;;;;;1.67;80.28;100295.56;342196;28;1893;-72
2021/12/19 00:54:56;;;;;;;373.63;117.03;;;;;;;1.67;80.27;100295.56;339718;29;2231;-72
2021/12/19 00:55:07;;;;;;;373.30;114.17;;;;;;;1.69;79.84;100294.72;341139;28;2096;-72
2021/12/19 00:55:18;;;;;;;374.15;115.20;;;;;;;1.68;79.52;100296.44;340922;28;1621;-72
2021/12/19 00:55:28;;;;;;;375.73;120.05;;;;;;;1.69;79.60;100298.16;338266;29;2030;-72
2021/12/19 00:55:39;;;;;;;377.33;124.50;;;;;;;1.70;79.67;100299.03;338506;29;1216;-72
2021/12/19 00:55:49;;;;;;;377.47;125.53;;;;;;;1.71;80.13;100300.75;341215;29;830;-72
2021/12/19 00:56:00;;;;;;;376.43;124.70;;;;;;;1.70;79.99;100299.91;340917;28;2083;-73
2021/12/19 00:56:11;;;;;;;376.20;123.85;;;;;;;1.71;80.21;100293.00;339764;29;2131;-72
2021/12/19 00:56:21;;;;;;;375.75;122.10;;;;;;;1.72;79.71;100292.16;337271;29;2106;-72
2021/12/19 00:56:31;;;;;;;376.13;122.75;;;;;;;1.73;79.71;100299.06;339939;29;894;-72
2021/12/19 00:56:43;;;;;;;378.00;124.73;;;;;;;1.73;80.10;100293.88;341733;28;1958;-72
2021/12/19 00:56:54;;;;;;;374.02;117.63;;;;;;;1.71;79.85;100300.75;345043;28;1701;-72
2021/12/19 00:57:04;;;;;;;372.85;116.10;;;;;;;1.72;79.87;100297.31;342490;28;1744;-72
2021/12/19 00:57:15;;;;;;;373.00;115.30;;;;;;;1.72;79.83;100299.91;341369;28;2156;-72
2021/12/19 00:57:25;;;;;;;375.23;120.03;;;;;;;1.71;79.63;100305.91;338548;29;1851;-72
2021/12/19 00:57:35;;;;;;;373.30;117.00;;;;;;;1.72;79.50;100293.03;338545;29;924;-72
2021/12/19 00:57:46;;;;;;;370.98;113.93;;;;;;;1.72;79.76;100292.16;339760;29;2179;-72
2021/12/19 00:57:56;;;;;;;373.90;116.90;;;;;;;1.73;79.54;100299.06;341129;28;1785;-72